XCM weather

Chatham Kent Airport
Chatham-Kent, Ontario, Canada

Public forecast

Using degrees Celsius for public forecast. Weather courtesy of forecast.io.

Current aviation weather report (METAR) for Chatham Kent Airport

Retrieved 2020/05/27 01:00 UTC (23 minutes ago):

CYCK 270100Z AUTO 10004KT 9SM CLR 23/19 A3003 RMK SLP168 DENSITY ALT 1600FT

Closest aviation forecast (TAF) to Chatham Kent Airport

Closest forecast is Selfridge Air National Guard Base Airport, 38.2 nm (70.7 km) WNW. Retrieved 2020-05-27 01:07 UTC (16 minutes ago):

TAF KMTC 270100Z 2701/2807 14006KT 9999 FEW130 BKN200 QNH2995INS BECMG 2718/2719 16010G15KT 9999 FEW030 BKN130 QNH2994INS BECMG 2723/2724 17009KT 9999 SCT020 BKN050 QNH2995INS TX30/2721Z TN17/2710Z LAST NO AMDS AFT 2703 NEXT 2709